createdAt,value
2022-08-17T00:01:51.994Z,7.55
2022-08-17T00:06:00.535Z,9.52
2022-08-17T00:10:03.374Z,7.40
2022-08-17T00:14:10.979Z,7.25
2022-08-17T00:19:00.972Z,7.10
2022-08-17T00:22:38.610Z,9.48
2022-08-17T00:26:45.402Z,12.23
2022-08-17T00:30:53.407Z,8.45
2022-08-17T00:34:56.585Z,8.52
2022-08-17T00:39:00.973Z,8.00
2022-08-17T00:43:13.467Z,7.55
2022-08-17T00:47:16.254Z,7.78
2022-08-17T00:51:24.154Z,8.98
2022-08-17T00:55:28.880Z,7.60
2022-08-17T00:59:36.143Z,7.47
2022-08-17T01:03:40.048Z,7.47
2022-08-17T01:07:44.323Z,7.50
2022-08-17T01:11:52.108Z,10.20
2022-08-17T01:16:00.720Z,8.60
2022-08-17T01:20:04.680Z,7.55
2022-08-17T01:24:09.234Z,7.55
2022-08-17T01:28:12.051Z,7.85
2022-08-17T01:32:34.966Z,8.60
2022-08-17T01:36:38.328Z,7.32
2022-08-17T01:40:49.324Z,10.70
2022-08-17T01:45:05.839Z,8.63
2022-08-17T01:49:11.363Z,8.85
2022-08-17T01:53:17.536Z,8.05
2022-08-17T01:57:21.654Z,7.88
2022-08-17T02:01:31.534Z,7.50
2022-08-17T02:05:35.178Z,7.68
2022-08-17T02:09:37.966Z,7.97
2022-08-17T02:13:48.532Z,7.45
2022-08-17T02:17:58.038Z,7.75
2022-08-17T02:22:00.814Z,8.98
2022-08-17T02:26:04.077Z,7.65
2022-08-17T02:31:00.117Z,7.72
2022-08-17T02:34:34.756Z,7.57
2022-08-17T02:38:38.391Z,7.82
2022-08-17T02:42:43.961Z,7.57
2022-08-17T02:46:48.053Z,8.50
2022-08-17T02:50:51.045Z,7.80
2022-08-17T02:54:53.814Z,8.20
2022-08-17T02:58:56.595Z,7.05
2022-08-17T03:03:01.969Z,7.97
2022-08-17T03:07:06.639Z,8.00
2022-08-17T03:11:10.363Z,8.95
2022-08-17T03:15:16.557Z,10.52
2022-08-17T03:19:20.693Z,7.32
2022-08-17T03:23:25.285Z,7.88
2022-08-17T03:27:28.384Z,7.95
2022-08-17T03:31:31.411Z,9.77
2022-08-17T03:35:37.578Z,10.40
2022-08-17T03:39:40.568Z,10.60
2022-08-17T03:43:43.451Z,8.18
2022-08-17T03:48:03.979Z,7.95
2022-08-17T03:52:25.650Z,9.38
2022-08-17T03:56:43.634Z,8.90
2022-08-17T04:00:46.554Z,7.50
2022-08-17T04:04:51.248Z,7.90
2022-08-17T04:08:55.548Z,8.65
2022-08-17T04:12:59.148Z,7.78
2022-08-17T04:17:01.986Z,7.93
2022-08-17T04:21:04.940Z,7.82
2022-08-17T04:25:18.098Z,8.13
2022-08-17T04:29:21.313Z,10.05
2022-08-17T04:33:26.217Z,10.40
2022-08-17T04:37:29.039Z,7.50
2022-08-17T04:41:51.135Z,7.78
2022-08-17T04:45:57.173Z,7.75
2022-08-17T04:50:02.373Z,11.52
2022-08-17T04:54:07.887Z,18.95
2022-08-17T04:58:14.661Z,14.38
2022-08-17T05:02:17.467Z,11.02
2022-08-17T05:06:20.459Z,11.38
2022-08-17T05:10:23.508Z,9.23
2022-08-17T05:14:33.433Z,12.20
2022-08-17T05:18:38.727Z,8.40
2022-08-17T05:22:51.147Z,7.38
2022-08-17T05:26:54.166Z,8.30
2022-08-17T05:31:02.166Z,13.45
2022-08-17T05:35:06.216Z,9.38
2022-08-17T05:39:08.985Z,11.63
2022-08-17T05:43:20.709Z,9.35
2022-08-17T05:47:27.068Z,10.00
2022-08-17T05:51:56.544Z,13.55
2022-08-17T05:56:22.682Z,9.93
2022-08-17T06:00:42.149Z,11.40
2022-08-17T06:05:02.101Z,9.15
2022-08-17T06:09:15.111Z,13.73
2022-08-17T06:13:27.831Z,18.88
2022-08-17T06:17:31.101Z,10.98
2022-08-17T06:21:39.053Z,18.52
2022-08-17T06:25:46.358Z,12.52
2022-08-17T06:29:54.415Z,10.38
2022-08-17T06:33:59.108Z,10.13
2022-08-17T06:38:21.813Z,11.00
2022-08-17T06:42:54.861Z,14.15
2022-08-17T06:47:10.443Z,6.97
2022-08-17T06:51:19.557Z,11.23
2022-08-17T06:55:32.184Z,8.70
2022-08-17T06:59:47.245Z,8.05
2022-08-17T07:04:11.896Z,10.50
2022-08-17T07:08:20.697Z,6.88
2022-08-17T07:12:31.407Z,9.68
2022-08-17T07:16:41.900Z,10.85
2022-08-17T07:20:51.415Z,6.50
2022-08-17T07:24:58.454Z,6.18
2022-08-17T07:29:03.255Z,7.63
2022-08-17T07:33:13.372Z,5.47
2022-08-17T07:37:20.487Z,6.95
2022-08-17T07:41:23.304Z,6.45
2022-08-17T07:45:45.246Z,9.65
2022-08-17T07:49:51.323Z,5.25
2022-08-17T07:54:09.144Z,5.65
2022-08-17T07:58:18.805Z,7.13
2022-08-17T08:02:31.723Z,8.00
2022-08-17T08:06:49.523Z,9.25
2022-08-17T08:11:02.263Z,4.50
2022-08-17T08:15:13.216Z,6.28
2022-08-17T08:19:20.979Z,7.47
2022-08-17T08:23:46.277Z,4.20
2022-08-17T08:28:01.428Z,3.85
2022-08-17T08:32:11.249Z,4.82
2022-08-17T08:37:14.200Z,4.25
2022-08-17T08:41:05.072Z,6.80
2022-08-17T08:45:16.361Z,3.60
2022-08-17T08:50:01.867Z,5.32
2022-08-17T08:54:06.922Z,5.00
2022-08-17T08:58:31.538Z,3.60
2022-08-17T09:03:02.566Z,4.20
2022-08-17T09:07:30.165Z,3.70
2022-08-17T09:12:02.893Z,3.95
2022-08-17T09:16:11.325Z,4.35
2022-08-17T09:20:28.082Z,4.40
2022-08-17T09:24:36.407Z,4.47
2022-08-17T09:28:45.710Z,5.97
2022-08-17T09:32:55.355Z,5.05
2022-08-17T09:37:04.733Z,3.83
2022-08-17T09:41:15.458Z,3.25
2022-08-17T09:45:32.884Z,6.13
2022-08-17T09:49:42.637Z,3.03
2022-08-17T09:53:45.526Z,3.47
2022-08-17T09:57:58.862Z,2.92
2022-08-17T10:02:40.842Z,4.38
2022-08-17T10:06:53.152Z,3.50
2022-08-17T10:11:07.723Z,4.60
2022-08-17T10:15:23.318Z,5.57
2022-08-17T10:19:36.623Z,4.05
2022-08-17T10:24:02.601Z,4.65
2022-08-17T10:28:14.250Z,6.63
2022-08-17T10:32:32.154Z,3.30
2022-08-17T10:36:48.002Z,3.78
2022-08-17T10:40:58.475Z,3.70
2022-08-17T10:45:07.751Z,3.70
2022-08-17T10:49:26.705Z,3.90
2022-08-17T10:53:56.716Z,5.30
2022-08-17T10:58:20.973Z,4.50
2022-08-17T11:02:28.107Z,4.50
2022-08-17T11:06:41.877Z,7.70
2022-08-17T11:11:07.452Z,4.82
2022-08-17T11:15:30.878Z,7.15
2022-08-17T11:20:08.652Z,5.90
2022-08-17T11:24:19.058Z,6.22
2022-08-17T11:28:25.386Z,3.95
2022-08-17T11:32:33.082Z,5.70
2022-08-17T11:37:03.421Z,4.38
2022-08-17T11:41:20.890Z,8.02
2022-08-17T11:45:39.678Z,8.88
2022-08-17T11:50:16.680Z,8.00
2022-08-17T11:54:42.564Z,7.07
2022-08-17T11:58:45.925Z,7.93
2022-08-17T12:03:28.638Z,5.90
2022-08-17T12:07:34.363Z,8.02
2022-08-17T12:12:04.669Z,4.22
2022-08-17T12:16:07.159Z,5.07
2022-08-17T12:20:14.907Z,5.95
2022-08-17T12:24:29.209Z,4.10
2022-08-17T12:28:36.079Z,4.40
2022-08-17T12:32:40.535Z,9.32
2022-08-17T12:36:44.823Z,6.82
2022-08-17T12:40:58.026Z,5.55
2022-08-17T12:45:01.486Z,7.00
2022-08-17T12:49:15.721Z,6.22
2022-08-17T12:53:22.988Z,6.43
2022-08-17T12:57:27.879Z,6.45
2022-08-17T13:01:34.944Z,9.07
2022-08-17T13:05:40.497Z,10.23
2022-08-17T13:09:52.151Z,8.63
2022-08-17T13:13:56.759Z,6.90
2022-08-17T13:18:04.881Z,8.30
2022-08-17T13:22:12.327Z,7.82
2022-08-17T13:26:17.465Z,6.20
2022-08-17T13:30:24.772Z,11.90
2022-08-17T13:34:49.580Z,7.75
2022-08-17T13:39:09.572Z,6.93
2022-08-17T13:43:33.709Z,4.50
2022-08-17T13:47:37.778Z,8.40
2022-08-17T13:51:44.853Z,6.97
2022-08-17T13:55:49.909Z,6.72
2022-08-17T14:00:17.144Z,8.40
2022-08-17T14:04:24.623Z,7.18
2022-08-17T14:08:30.712Z,8.25
2022-08-17T14:12:35.673Z,5.10
2022-08-17T14:16:41.517Z,7.05
2022-08-17T14:20:45.719Z,8.55
2022-08-17T14:24:48.487Z,7.82
2022-08-17T14:28:56.517Z,8.73
2022-08-17T14:33:02.041Z,6.85
2022-08-17T14:37:06.225Z,6.50
2022-08-17T14:41:09.371Z,5.18
2022-08-17T14:45:29.719Z,4.95
2022-08-17T14:49:36.245Z,5.93
2022-08-17T14:53:42.598Z,4.45
2022-08-17T14:57:46.122Z,4.90
2022-08-17T15:01:49.100Z,5.97
2022-08-17T15:05:51.959Z,4.32
2022-08-17T15:09:56.632Z,5.28
2022-08-17T15:14:00.085Z,3.85
2022-08-17T15:18:03.719Z,3.38
2022-08-17T15:22:06.860Z,5.15
2022-08-17T15:26:11.329Z,3.53
2022-08-17T15:30:15.161Z,4.95
2022-08-17T15:34:18.202Z,4.28
2022-08-17T15:38:21.991Z,3.72
2022-08-17T15:42:26.705Z,3.85
2022-08-17T15:46:29.752Z,3.20
2022-08-17T15:50:32.786Z,3.42
2022-08-17T15:54:36.075Z,3.50
2022-08-17T15:58:43.699Z,3.58
2022-08-17T16:03:16.042Z,4.28
2022-08-17T16:07:11.207Z,3.55
2022-08-17T16:11:15.508Z,3.78
2022-08-17T16:15:21.232Z,4.40
2022-08-17T16:19:24.149Z,3.42
2022-08-17T16:23:27.101Z,4.28
2022-08-17T16:27:30.045Z,5.28
2022-08-17T16:31:34.264Z,4.40
2022-08-17T16:35:37.105Z,4.68
2022-08-17T16:39:40.530Z,5.82
2022-08-17T16:43:45.659Z,4.15
2022-08-17T16:47:50.410Z,3.95
2022-08-17T16:51:53.334Z,4.25
2022-08-17T16:55:56.501Z,5.38
2022-08-17T16:59:59.305Z,4.28
2022-08-17T17:04:06.385Z,3.78
2022-08-17T17:08:13.473Z,4.57
2022-08-17T17:12:19.743Z,4.22
2022-08-17T17:16:46.202Z,7.90
2022-08-17T17:20:56.434Z,5.55
2022-08-17T17:25:07.765Z,6.40
2022-08-17T17:29:27.661Z,4.65
2022-08-17T17:33:36.535Z,4.70
2022-08-17T17:37:43.677Z,4.10
2022-08-17T17:41:52.222Z,3.92
2022-08-17T17:45:58.555Z,4.10
2022-08-17T17:50:32.983Z,6.63
2022-08-17T17:54:48.897Z,4.25
2022-08-17T17:58:56.077Z,8.52
2022-08-17T18:03:13.340Z,8.85
2022-08-17T18:07:24.320Z,8.23
2022-08-17T18:12:05.895Z,8.73
2022-08-17T18:16:15.172Z,7.88
2022-08-17T18:20:35.925Z,9.70
2022-08-17T18:24:48.796Z,8.70
2022-08-17T18:28:52.814Z,12.77
2022-08-17T18:33:23.121Z,11.75
2022-08-17T18:37:39.325Z,12.43
2022-08-17T18:41:44.055Z,16.30
2022-08-17T18:45:48.946Z,16.30
2022-08-17T18:49:57.469Z,16.00
2022-08-17T18:54:13.454Z,19.58
2022-08-17T18:58:20.672Z,19.77
2022-08-17T19:02:43.835Z,15.27
2022-08-17T19:07:21.810Z,17.05
2022-08-17T19:11:30.009Z,17.20
2022-08-17T19:15:36.413Z,16.52
2022-08-17T19:19:53.140Z,19.05
2022-08-17T19:24:05.917Z,17.90
2022-08-17T19:28:22.349Z,19.83
2022-08-17T19:32:28.793Z,18.25
2022-08-17T19:36:39.572Z,20.95
2022-08-17T19:40:58.595Z,20.25
2022-08-17T19:45:08.799Z,23.05
2022-08-17T19:49:22.327Z,20.65
2022-08-17T19:54:04.411Z,26.50
2022-08-17T19:58:17.903Z,20.10
2022-08-17T20:02:28.807Z,20.95
2022-08-17T20:06:35.634Z,22.05
2022-08-17T20:10:48.128Z,21.70
2022-08-17T20:15:05.173Z,20.02
2022-08-17T20:19:13.165Z,22.60
2022-08-17T20:23:30.527Z,21.98
2022-08-17T20:27:37.010Z,23.67
2022-08-17T20:31:44.626Z,28.40
2022-08-17T20:36:04.832Z,24.42
2022-08-17T20:40:25.854Z,27.95
2022-08-17T20:44:33.630Z,25.90
2022-08-17T20:48:42.792Z,28.90
2022-08-17T20:52:52.812Z,28.98
2022-08-17T20:56:58.510Z,27.98
2022-08-17T21:01:13.133Z,26.70
2022-08-17T21:05:38.321Z,28.20
2022-08-17T21:09:41.246Z,28.80
2022-08-17T21:14:06.627Z,29.98
2022-08-17T21:18:19.612Z,32.97
2022-08-17T21:22:38.358Z,33.55
2022-08-17T21:26:51.124Z,34.15
2022-08-17T21:30:58.358Z,35.28
2022-08-17T21:35:26.078Z,36.60
2022-08-17T21:39:40.446Z,36.05
2022-08-17T21:43:49.984Z,38.85
2022-08-17T21:48:08.884Z,37.88
2022-08-17T21:52:15.092Z,40.28
2022-08-17T21:56:28.285Z,40.67
2022-08-17T22:00:33.089Z,39.60
2022-08-17T22:04:38.147Z,39.08
2022-08-17T22:08:41.012Z,38.22
2022-08-17T22:13:03.315Z,39.58
2022-08-17T22:17:24.965Z,36.95
2022-08-17T22:21:28.355Z,41.03
2022-08-17T22:25:33.182Z,38.83
2022-08-17T22:29:56.916Z,39.95
2022-08-17T22:34:11.028Z,41.67
2022-08-17T22:38:31.479Z,43.45
2022-08-17T22:42:36.311Z,44.55
2022-08-17T22:46:48.573Z,46.75
2022-08-17T22:50:52.475Z,47.90
2022-08-17T22:55:21.672Z,43.75
2022-08-17T22:59:39.810Z,47.13
2022-08-17T23:03:56.180Z,50.92
2022-08-17T23:07:59.032Z,47.38
2022-08-17T23:12:01.851Z,48.25
2022-08-17T23:16:05.110Z,52.67
2022-08-17T23:20:12.080Z,49.70
2022-08-17T23:24:20.453Z,53.00
2022-08-17T23:28:23.306Z,55.42
2022-08-17T23:32:26.471Z,55.22
2022-08-17T23:36:31.502Z,55.70
2022-08-17T23:40:34.679Z,58.92
2022-08-17T23:44:38.811Z,60.22
2022-08-17T23:48:42.031Z,63.20
2022-08-17T23:52:47.505Z,63.72
2022-08-17T23:56:50.650Z,60.33
